Time;durP1;ratioP1;P1;durP2;ratioP2;P2;SDS_P1;SDS_P2;PMS_P1;PMS_P2;Temp;Humidity;BMP_temperature;BMP_pressure;BME280_temperature;BME280_humidity;BME280_pressure;Samples;Min_cycle;Max_cycle;Signal;HPM_P1;HPM_P2
2023/01/05 00:01:05;;;;;;;21.10;12.18;;;12.40;99.90;;;;;;5059968;28;20043;-75
2023/01/05 00:03:34;;;;;;;18.98;12.30;;;12.40;99.90;;;;;;5094445;28;20413;-76
2023/01/05 00:06:05;;;;;;;24.05;12.05;;;12.40;99.90;;;;;;5097193;28;20040;-76
2023/01/05 00:08:33;;;;;;;17.13;10.80;;;12.30;99.90;;;;;;5101413;28;20038;-76
2023/01/05 00:22:31;;;;;;;17.57;10.33;;;12.20;99.90;;;;;;5089212;28;20036;-77
2023/01/05 00:25:11;;;;;;;23.77;10.95;;;12.20;99.90;;;;;;5086281;28;20119;-76
2023/01/05 00:27:44;;;;;;;16.38;9.52;;;12.20;99.90;;;;;;5082805;28;20131;-76
2023/01/05 00:30:14;;;;;;;20.63;11.20;;;12.30;99.90;;;;;;5082070;28;20051;-76
2023/01/05 00:32:42;;;;;;;19.17;10.25;;;12.30;99.90;;;;;;5091568;28;20102;-76
2023/01/05 00:35:11;;;;;;;17.60;10.63;;;12.30;99.90;;;;;;5099839;28;20036;-76
2023/01/05 00:37:39;;;;;;;22.27;9.85;;;12.30;99.90;;;;;;5095595;28;20074;-76
2023/01/05 00:40:10;;;;;;;19.40;11.10;;;12.30;99.90;;;;;;5094769;28;20066;-73
2023/01/05 00:42:38;;;;;;;19.35;10.80;;;12.20;99.90;;;;;;5066665;28;20081;-76
2023/01/05 00:45:08;;;;;;;17.20;9.30;;;12.20;99.90;;;;;;5091443;28;20036;-74
2023/01/05 00:47:35;;;;;;;14.32;9.77;;;12.20;99.90;;;;;;5089982;28;20593;-75
2023/01/05 00:50:04;;;;;;;21.20;10.93;;;12.20;99.90;;;;;;5096423;28;20044;-75
2023/01/05 00:52:34;;;;;;;16.58;10.18;;;12.10;99.90;;;;;;5074391;28;20044;-75
2023/01/05 00:55:01;;;;;;;18.17;10.45;;;12.20;99.90;;;;;;5073326;28;20056;-75
2023/01/05 00:57:29;;;;;;;17.65;10.07;;;12.10;99.90;;;;;;5071344;28;20064;-76
2023/01/05 00:59:57;;;;;;;16.15;8.73;;;12.10;99.90;;;;;;5092977;28;20120;-75
2023/01/05 01:02:25;;;;;;;21.45;11.13;;;12.00;99.90;;;;;;5097314;28;20060;-75
2023/01/05 01:04:53;;;;;;;14.25;9.52;;;12.00;99.90;;;;;;5076108;28;20142;-76
2023/01/05 01:07:20;;;;;;;15.00;9.13;;;12.00;99.90;;;;;;5083188;28;20048;-76
2023/01/05 01:09:47;;;;;;;16.17;9.23;;;12.00;99.90;;;;;;5086122;28;20402;-75
2023/01/05 01:12:15;;;;;;;19.83;10.68;;;12.00;99.90;;;;;;5078567;28;20041;-74
2023/01/05 01:14:46;;;;;;;17.38;9.27;;;12.00;99.90;;;;;;5098668;28;20067;-75
2023/01/05 01:17:16;;;;;;;19.50;9.98;;;12.00;99.90;;;;;;5072074;28;20047;-75
2023/01/05 01:19:45;;;;;;;16.05;9.70;;;12.00;99.90;;;;;;5086932;28;20044;-75
2023/01/05 01:22:13;;;;;;;18.08;9.98;;;11.90;99.90;;;;;;5083042;28;20122;-75
2023/01/05 01:24:41;;;;;;;34.63;10.48;;;11.90;99.90;;;;;;5078002;28;20041;-76
2023/01/05 01:27:08;;;;;;;16.63;9.40;;;11.90;99.90;;;;;;5092706;28;20037;-76
2023/01/05 01:29:36;;;;;;;15.55;10.02;;;11.90;99.90;;;;;;5073841;28;20408;-76
2023/01/05 01:32:03;;;;;;;14.65;9.20;;;11.90;99.90;;;;;;5088094;28;20135;-76
2023/01/05 01:34:31;;;;;;;17.02;11.05;;;11.90;99.90;;;;;;5080272;28;20778;-75
2023/01/05 01:36:59;;;;;;;18.88;10.05;;;11.80;99.90;;;;;;5097099;28;20432;-75
2023/01/05 01:39:32;;;;;;;18.35;10.20;;;11.80;99.90;;;;;;5087102;28;20047;-75
2023/01/05 01:42:05;;;;;;;14.13;8.52;;;11.90;99.90;;;;;;5096079;28;20040;-76
2023/01/05 01:44:56;;;;;;;15.10;9.70;;;11.90;99.90;;;;;;5063915;28;20048;-77
2023/01/05 01:47:49;;;;;;;15.88;9.48;;;11.80;99.90;;;;;;5100363;27;20102;-76
2023/01/05 01:50:23;;;;;;;16.33;9.80;;;11.80;99.90;;;;;;5100020;28;20070;-76
2023/01/05 01:52:57;;;;;;;16.67;9.20;;;11.80;99.90;;;;;;5075732;28;20161;-76
2023/01/05 01:55:26;;;;;;;17.55;10.13;;;11.80;99.90;;;;;;5080336;28;20044;-76
2023/01/05 01:57:54;;;;;;;22.35;11.75;;;11.80;99.90;;;;;;5099953;28;20126;-75
2023/01/05 02:00:22;;;;;;;12.27;8.32;;;11.70;99.90;;;;;;5091675;28;20502;-75
2023/01/05 02:02:54;;;;;;;14.82;9.00;;;11.70;99.90;;;;;;5090437;28;20520;-75
2023/01/05 02:05:29;;;;;;;15.93;9.02;;;11.70;99.90;;;;;;5103802;28;20048;-76
2023/01/05 02:07:56;;;;;;;17.25;10.90;;;11.70;99.90;;;;;;5113057;27;20405;-76
2023/01/05 02:10:51;;;;;;;15.10;9.88;;;11.70;99.90;;;;;;5097137;28;20813;-75
2023/01/05 02:13:50;;;;;;;15.05;9.45;;;11.60;99.90;;;;;;5084420;28;20048;-75
2023/01/05 02:16:31;;;;;;;13.82;8.20;;;11.60;99.90;;;;;;5090737;28;20490;-76
2023/01/05 02:19:17;;;;;;;16.65;10.38;;;11.60;99.90;;;;;;5096269;28;20040;-77
2023/01/05 02:21:56;;;;;;;17.17;9.55;;;11.60;99.90;;;;;;5091116;28;20154;-77
2023/01/05 02:24:43;;;;;;;25.23;10.95;;;11.70;99.90;;;;;;5087470;28;20040;-76
2023/01/05 02:27:26;;;;;;;15.63;10.25;;;11.70;99.90;;;;;;5069875;28;20056;-76
2023/01/05 02:30:08;;;;;;;17.85;10.07;;;11.70;99.90;;;;;;5071074;28;20047;-76
2023/01/05 02:32:38;;;;;;;16.42;9.23;;;11.60;99.90;;;;;;5078234;28;20119;-76
2023/01/05 02:35:09;;;;;;;16.33;9.07;;;11.60;99.90;;;;;;5076613;28;20044;-76
2023/01/05 02:37:44;;;;;;;14.85;9.02;;;11.60;99.90;;;;;;5049949;28;20094;-76
2023/01/05 02:40:35;;;;;;;16.80;9.85;;;11.60;99.90;;;;;;5058177;28;20048;-76
2023/01/05 02:43:05;;;;;;;14.00;8.20;;;11.60;99.90;;;;;;5051126;28;20593;-76
2023/01/05 02:45:33;;;;;;;19.02;10.90;;;11.50;99.90;;;;;;5059537;28;20048;-76
2023/01/05 02:48:01;;;;;;;18.15;9.48;;;11.60;99.90;;;;;;5066582;28;20080;-76
2023/01/05 02:50:44;;;;;;;16.13;10.07;;;11.50;99.90;;;;;;5055590;28;20546;-76
2023/01/05 02:53:26;;;;;;;21.52;11.88;;;11.50;99.90;;;;;;5061789;28;20501;-76
2023/01/05 02:56:00;;;;;;;20.42;9.80;;;11.50;99.90;;;;;;5086577;28;20044;-76
2023/01/05 02:58:59;;;;;;;16.85;10.88;;;11.50;99.90;;;;;;5070364;28;20040;-75
2023/01/05 03:01:41;;;;;;;14.60;9.15;;;11.50;99.90;;;;;;5081600;28;20052;-75
2023/01/05 03:04:17;;;;;;;12.98;8.30;;;11.50;99.90;;;;;;5089556;28;20098;-75
2023/01/05 03:07:11;;;;;;;20.60;10.88;;;11.50;99.90;;;;;;5078137;28;20452;-77
2023/01/05 03:09:41;;;;;;;17.55;9.63;;;11.50;99.90;;;;;;5070036;28;20141;-76
2023/01/05 03:15:31;;;;;;;14.88;9.68;;;11.50;99.90;;;;;;5075424;28;20133;-76
2023/01/05 03:18:09;;;;;;;16.30;9.93;;;11.50;99.90;;;;;;5090029;28;20457;-76
2023/01/05 03:20:44;;;;;;;14.60;8.98;;;11.50;99.90;;;;;;5047491;28;20052;-76
2023/01/05 03:37:56;;;;;;;17.77;8.98;;;11.50;99.90;;;;;;5070348;28;20048;-76
2023/01/05 03:40:29;;;;;;;17.75;10.35;;;11.50;99.90;;;;;;5071093;28;20063;-77
2023/01/05 03:42:58;;;;;;;15.60;9.38;;;11.40;99.90;;;;;;5075517;28;20036;-76
2023/01/05 03:45:34;;;;;;;16.25;10.23;;;11.50;99.90;;;;;;5067214;28;20044;-77
2023/01/05 03:48:02;;;;;;;19.67;10.32;;;11.50;99.90;;;;;;5047762;28;20063;-76
2023/01/05 03:50:31;;;;;;;14.65;9.43;;;11.50;99.90;;;;;;5069102;28;20056;-76
2023/01/05 03:52:59;;;;;;;17.35;9.90;;;11.50;99.90;;;;;;5075673;28;20118;-76
2023/01/05 03:55:29;;;;;;;18.25;9.35;;;11.50;99.90;;;;;;5089264;28;20547;-76
2023/01/05 03:57:57;;;;;;;17.70;10.48;;;11.40;99.90;;;;;;5083033;28;20123;-76
2023/01/05 04:00:24;;;;;;;26.33;9.40;;;11.40;99.90;;;;;;5074727;28;20040;-76
2023/01/05 04:03:00;;;;;;;17.90;9.25;;;11.40;99.90;;;;;;5054966;28;20143;-76
2023/01/05 04:05:27;;;;;;;17.60;10.27;;;11.40;99.90;;;;;;5081400;28;20040;-77
2023/01/05 04:07:55;;;;;;;15.82;8.93;;;11.40;99.90;;;;;;5072487;28;20044;-77
2023/01/05 04:10:22;;;;;;;16.08;9.45;;;11.50;99.90;;;;;;5082367;28;20481;-77
2023/01/05 04:12:50;;;;;;;19.05;10.45;;;11.50;99.90;;;;;;5072096;28;20473;-76
2023/01/05 04:15:18;;;;;;;17.95;9.43;;;11.40;99.90;;;;;;5085225;28;20123;-77
2023/01/05 04:17:46;;;;;;;17.27;7.75;;;11.40;99.90;;;;;;5089168;28;20393;-77
2023/01/05 04:20:13;;;;;;;16.17;9.65;;;11.40;99.90;;;;;;5090539;28;20062;-76
2023/01/05 04:22:42;;;;;;;16.20;10.55;;;11.40;99.90;;;;;;5070559;28;20093;-77
2023/01/05 04:25:10;;;;;;;15.35;9.85;;;11.40;99.90;;;;;;5055658;28;20052;-76
2023/01/05 04:27:41;;;;;;;20.08;9.77;;;11.40;99.90;;;;;;5088890;28;20097;-77
2023/01/05 04:30:09;;;;;;;16.48;10.40;;;11.40;99.90;;;;;;5084513;28;20032;-76
2023/01/05 04:32:37;;;;;;;17.00;9.68;;;11.40;99.90;;;;;;5080855;28;20131;-76
2023/01/05 04:35:08;;;;;;;18.35;10.07;;;11.50;99.90;;;;;;5057857;28;20113;-76
2023/01/05 04:37:39;;;;;;;15.82;9.85;;;11.50;99.90;;;;;;5088965;28;20052;-76
2023/01/05 04:40:08;;;;;;;21.05;11.15;;;11.50;99.90;;;;;;5085070;28;20079;-76
2023/01/05 04:42:43;;;;;;;20.60;10.38;;;11.50;99.90;;;;;;5078939;28;20494;-77
2023/01/05 04:45:12;;;;;;;16.67;10.38;;;11.40;99.90;;;;;;5062218;28;20398;-77
2023/01/05 04:47:39;;;;;;;18.52;10.43;;;11.50;99.90;;;;;;5088956;28;20101;-76
2023/01/05 04:50:09;;;;;;;19.55;12.35;;;11.50;99.90;;;;;;5072175;28;20048;-76
2023/01/05 04:52:38;;;;;;;15.20;9.60;;;11.50;99.90;;;;;;5072689;28;20064;-76
2023/01/05 04:55:07;;;;;;;25.20;11.52;;;11.50;99.90;;;;;;5071882;28;20087;-76
2023/01/05 04:57:35;;;;;;;24.75;11.63;;;11.50;99.90;;;;;;5068093;28;20086;-77
2023/01/05 05:00:03;;;;;;;23.85;10.07;;;11.60;99.90;;;;;;5076030;28;20045;-77
2023/01/05 05:02:32;;;;;;;18.08;11.30;;;11.70;99.90;;;;;;5088528;28;20501;-76
2023/01/05 05:05:00;;;;;;;15.40;10.15;;;11.60;99.90;;;;;;5083758;28;20044;-76
2023/01/05 05:07:28;;;;;;;15.95;8.38;;;11.60;99.90;;;;;;5082604;28;20494;-76
2023/01/05 05:09:58;;;;;;;17.20;9.90;;;11.60;99.90;;;;;;5061695;28;20048;-76
2023/01/05 05:12:25;;;;;;;15.25;9.63;;;11.60;99.90;;;;;;5080421;28;20040;-76
2023/01/05 05:14:53;;;;;;;19.08;10.50;;;11.60;99.90;;;;;;5069111;28;20055;-77
2023/01/05 05:17:20;;;;;;;21.27;10.00;;;11.60;99.90;;;;;;5082197;28;20049;-77
2023/01/05 05:19:49;;;;;;;13.88;10.07;;;11.60;99.90;;;;;;5072285;28;20048;-76
2023/01/05 05:22:19;;;;;;;24.15;9.80;;;11.60;99.90;;;;;;5072254;28;20044;-76
2023/01/05 05:24:47;;;;;;;15.10;10.18;;;11.60;99.90;;;;;;5091797;28;20351;-76
2023/01/05 05:27:14;;;;;;;20.67;10.27;;;11.50;99.90;;;;;;5070422;28;20131;-77
2023/01/05 05:29:42;;;;;;;26.75;11.40;;;11.50;99.90;;;;;;5073464;28;20056;-76
2023/01/05 05:32:10;;;;;;;13.30;9.23;;;11.40;99.90;;;;;;5082970;28;20143;-76
2023/01/05 05:34:37;;;;;;;15.73;10.23;;;11.40;99.90;;;;;;5091948;28;20113;-77
2023/01/05 05:37:05;;;;;;;19.70;10.25;;;11.40;99.90;;;;;;5093395;28;20581;-76
2023/01/05 05:39:33;;;;;;;16.30;10.18;;;11.30;99.90;;;;;;5083214;28;20127;-76
2023/01/05 05:42:00;;;;;;;18.30;9.35;;;11.30;99.90;;;;;;5081364;28;20049;-76
2023/01/05 05:44:28;;;;;;;14.05;9.18;;;11.30;99.90;;;;;;5088760;28;20097;-77
2023/01/05 05:46:56;;;;;;;17.20;10.10;;;11.30;99.90;;;;;;5092095;28;20075;-76
2023/01/05 05:49:23;;;;;;;16.58;10.70;;;11.30;99.90;;;;;;5093174;28;20124;-76
2023/01/05 05:51:51;;;;;;;17.95;9.75;;;11.30;99.90;;;;;;5099844;28;20041;-76
2023/01/05 05:54:18;;;;;;;19.40;10.13;;;11.30;99.90;;;;;;5093468;28;20039;-76
2023/01/05 05:56:45;;;;;;;18.50;11.00;;;11.30;99.90;;;;;;5077349;28;20048;-76
2023/01/05 05:59:13;;;;;;;20.75;10.32;;;11.30;99.90;;;;;;5090623;28;20082;-76
2023/01/05 06:01:40;;;;;;;18.75;9.55;;;11.30;99.90;;;;;;5083196;28;20043;-76
2023/01/05 06:04:08;;;;;;;18.00;9.52;;;11.30;99.90;;;;;;5069947;28;20134;-75
2023/01/05 06:06:36;;;;;;;19.13;11.55;;;11.30;99.90;;;;;;5083568;28;20055;-75
2023/01/05 06:09:03;;;;;;;19.08;9.63;;;11.30;99.90;;;;;;5079077;28;20068;-76
2023/01/05 06:11:31;;;;;;;16.15;9.15;;;11.30;99.90;;;;;;5078041;28;20040;-76
2023/01/05 06:13:59;;;;;;;17.05;10.75;;;11.30;99.90;;;;;;5085276;28;20045;-76
2023/01/05 06:16:26;;;;;;;17.85;10.15;;;11.30;99.90;;;;;;5088164;28;20035;-76
2023/01/05 06:18:54;;;;;;;15.38;9.50;;;11.20;99.90;;;;;;5094020;28;20032;-76
2023/01/05 06:21:22;;;;;;;20.98;10.10;;;11.20;99.90;;;;;;5095618;28;20047;-76
2023/01/05 06:23:50;;;;;;;19.48;12.48;;;11.20;99.90;;;;;;5094954;28;20048;-76
2023/01/05 06:26:17;;;;;;;14.93;9.20;;;11.20;99.90;;;;;;5089573;28;20063;-76
2023/01/05 06:28:45;;;;;;;16.52;9.35;;;11.20;99.90;;;;;;5090695;28;20047;-76
2023/01/05 06:31:12;;;;;;;16.40;10.43;;;11.10;99.90;;;;;;5056905;28;20073;-76
2023/01/05 06:33:40;;;;;;;17.13;11.23;;;11.10;99.90;;;;;;5083890;28;20044;-76
2023/01/05 06:36:07;;;;;;;18.73;11.02;;;11.20;99.90;;;;;;5083615;28;20486;-76
2023/01/05 06:38:35;;;;;;;18.95;12.05;;;11.20;99.90;;;;;;5083361;28;20562;-74
2023/01/05 06:41:03;;;;;;;14.07;9.82;;;11.20;99.90;;;;;;5070403;28;20051;-76
2023/01/05 06:43:31;;;;;;;15.20;9.90;;;11.30;99.90;;;;;;5072849;28;20036;-75
2023/01/05 06:45:58;;;;;;;16.92;9.60;;;11.50;99.90;;;;;;5075668;28;20040;-75
2023/01/05 06:48:26;;;;;;;18.42;9.57;;;11.90;99.90;;;;;;5082538;28;20072;-75
2023/01/05 06:50:54;;;;;;;18.60;9.25;;;12.30;99.90;;;;;;5050900;28;20052;-76
2023/01/05 06:53:21;;;;;;;17.65;8.98;;;12.80;99.90;;;;;;5069037;28;20049;-77
2023/01/05 06:55:48;;;;;;;17.75;10.73;;;13.40;99.90;;;;;;5066248;28;20563;-75
2023/01/05 06:58:16;;;;;;;18.30;9.35;;;14.10;99.90;;;;;;5089091;28;20047;-76
2023/01/05 07:00:43;;;;;;;16.70;9.25;;;14.70;99.90;;;;;;5090575;28;20401;-76
2023/01/05 07:03:12;;;;;;;13.50;9.30;;;15.40;99.90;;;;;;5089903;28;20044;-76
2023/01/05 07:05:41;;;;;;;19.40;10.38;;;16.10;99.90;;;;;;5088625;28;20032;-76
2023/01/05 07:08:08;;;;;;;23.50;9.25;;;16.80;99.90;;;;;;5088141;28;20432;-76
2023/01/05 07:10:36;;;;;;;15.50;7.75;;;17.40;99.90;;;;;;5087536;28;20134;-76
2023/01/05 07:13:03;;;;;;;11.48;8.32;;;18.00;99.90;;;;;;5088970;28;20079;-76
2023/01/05 07:15:31;;;;;;;13.68;8.68;;;18.50;99.90;;;;;;5070818;28;20070;-75
2023/01/05 07:17:58;;;;;;;13.32;7.88;;;19.10;99.90;;;;;;5089659;28;20044;-75
2023/01/05 07:20:26;;;;;;;10.73;6.68;;;19.50;99.90;;;;;;5089722;28;20131;-75
2023/01/05 07:22:53;;;;;;;14.38;8.65;;;19.90;99.90;;;;;;5089070;28;20043;-75
2023/01/05 07:25:21;;;;;;;16.77;9.65;;;20.40;99.90;;;;;;5090187;28;20066;-76
2023/01/05 07:27:51;;;;;;;12.35;9.02;;;20.90;99.90;;;;;;5089328;28;20486;-75
2023/01/05 07:30:18;;;;;;;12.38;8.32;;;21.20;99.90;;;;;;5088543;28;20044;-74
2023/01/05 07:32:45;;;;;;;16.05;8.57;;;21.60;99.90;;;;;;5089947;28;20411;-73
2023/01/05 07:35:13;;;;;;;13.45;7.93;;;22.00;99.90;;;;;;5088752;28;20051;-74
2023/01/05 07:37:42;;;;;;;33.00;20.05;;;22.30;99.90;;;;;;5071940;28;20043;-74
2023/01/05 07:40:10;;;;;;;50.85;30.15;;;22.40;99.90;;;;;;5088723;28;20070;-73
2023/01/05 07:42:37;;;;;;;19.58;11.70;;;22.00;99.90;;;;;;5088989;28;20044;-74
2023/01/05 07:45:08;;;;;;;17.60;8.88;;;21.80;99.90;;;;;;5089079;28;20036;-74
2023/01/05 07:47:38;;;;;;;16.17;8.85;;;21.60;99.90;;;;;;5088763;28;20044;-73
2023/01/05 07:50:06;;;;;;;22.63;11.77;;;21.10;99.90;;;;;;5088356;28;20062;-73
2023/01/05 07:52:34;;;;;;;16.05;8.98;;;20.40;99.90;;;;;;5088455;28;20059;-74
2023/01/05 07:55:01;;;;;;;14.63;9.80;;;19.90;99.90;;;;;;5090108;28;20550;-74
2023/01/05 07:57:29;;;;;;;11.10;7.43;;;19.90;99.90;;;;;;5089531;28;20072;-74
2023/01/05 07:59:56;;;;;;;16.25;8.02;;;20.10;99.90;;;;;;5088663;28;20044;-73
2023/01/05 08:02:26;;;;;;;13.85;7.03;;;20.30;99.90;;;;;;5089800;28;20105;-74
2023/01/05 08:04:55;;;;;;;13.93;7.20;;;20.50;99.90;;;;;;5088468;28;20040;-74
2023/01/05 08:07:23;;;;;;;14.48;7.55;;;20.60;99.90;;;;;;5089716;28;20526;-75
2023/01/05 08:13:58;;;;;;;14.43;8.15;;;20.70;99.90;;;;;;5089678;28;20512;-74
2023/01/05 08:15:23;;;;;;;14.82;7.07;;;20.60;99.90;;;;;;5088000;28;20055;-76
2023/01/05 08:17:51;;;;;;;12.30;7.40;;;20.70;99.90;;;;;;5086974;28;20768;-75
2023/01/05 08:20:19;;;;;;;13.68;7.72;;;20.80;99.90;;;;;;5088061;28;20055;-76
2023/01/05 08:22:51;;;;;;;14.30;8.50;;;20.80;99.90;;;;;;5087717;28;20040;-73
2023/01/05 08:25:19;;;;;;;14.43;7.95;;;20.80;99.90;;;;;;5087511;28;20115;-73
2023/01/05 08:27:47;;;;;;;12.20;7.78;;;20.90;99.90;;;;;;5087812;28;20553;-74
2023/01/05 08:30:15;;;;;;;12.85;8.15;;;20.90;99.90;;;;;;5087148;28;20040;-74
2023/01/05 08:32:42;;;;;;;15.85;7.85;;;20.80;99.90;;;;;;5087897;28;20113;-73
2023/01/05 08:35:10;;;;;;;13.48;7.95;;;20.70;99.90;;;;;;5087129;28;20147;-73
2023/01/05 08:37:38;;;;;;;13.63;7.43;;;20.60;99.90;;;;;;5089176;28;20036;-74
2023/01/05 08:40:07;;;;;;;13.68;7.55;;;20.40;99.90;;;;;;5071524;28;20580;-74
2023/01/05 08:42:35;;;;;;;14.95;8.18;;;20.20;99.90;;;;;;5069508;28;20048;-73
2023/01/05 08:45:03;;;;;;;14.13;8.00;;;20.00;99.90;;;;;;5067699;28;20517;-76
2023/01/05 08:47:31;;;;;;;12.00;6.97;;;19.80;99.90;;;;;;5079815;28;20052;-75
2023/01/05 08:49:58;;;;;;;18.42;8.85;;;19.70;99.90;;;;;;5090053;28;20066;-75
2023/01/05 08:52:26;;;;;;;12.10;8.18;;;19.60;99.90;;;;;;5092569;28;20054;-75
2023/01/05 08:54:53;;;;;;;13.80;8.77;;;19.40;99.90;;;;;;5093083;28;20166;-75
2023/01/05 08:57:21;;;;;;;11.80;7.57;;;19.30;99.90;;;;;;5091784;28;20047;-74
2023/01/05 08:59:49;;;;;;;11.48;7.13;;;19.30;99.90;;;;;;5075158;28;20432;-75
2023/01/05 09:02:16;;;;;;;11.18;6.75;;;19.30;99.90;;;;;;5091959;28;20436;-75
2023/01/05 09:04:49;;;;;;;12.85;8.05;;;19.20;99.90;;;;;;5091304;28;20040;-75
2023/01/05 09:07:17;;;;;;;11.10;7.25;;;19.20;99.90;;;;;;5093085;28;20048;-75
2023/01/05 09:09:44;;;;;;;12.25;7.55;;;19.20;99.90;;;;;;5075174;28;20510;-75
2023/01/05 09:12:12;;;;;;;12.38;7.57;;;19.20;99.90;;;;;;5091569;28;20047;-76
2023/01/05 09:14:40;;;;;;;15.57;7.88;;;19.20;99.90;;;;;;5093048;28;20040;-75
2023/01/05 09:17:07;;;;;;;12.85;7.18;;;19.30;99.90;;;;;;5092777;28;20718;-75
2023/01/05 09:19:36;;;;;;;11.10;6.95;;;19.30;99.90;;;;;;5086972;28;20105;-75
2023/01/05 09:22:03;;;;;;;11.77;6.97;;;19.40;99.90;;;;;;5070056;28;20051;-74
2023/01/05 09:24:31;;;;;;;12.43;7.30;;;19.40;99.90;;;;;;5070710;28;20376;-75
2023/01/05 09:26:58;;;;;;;13.88;7.30;;;19.50;99.90;;;;;;5080821;28;20044;-75
2023/01/05 09:29:26;;;;;;;15.75;8.48;;;19.50;99.90;;;;;;5087004;28;20070;-75
2023/01/05 09:31:53;;;;;;;14.43;7.35;;;19.60;99.90;;;;;;5075135;28;20056;-74
2023/01/05 09:34:21;;;;;;;11.98;7.32;;;19.60;99.90;;;;;;5064957;28;20060;-74
2023/01/05 09:36:48;;;;;;;12.80;7.10;;;19.60;99.90;;;;;;5065197;28;20154;-74
2023/01/05 09:39:16;;;;;;;11.30;6.78;;;19.70;99.90;;;;;;5087639;28;20044;-75
2023/01/05 09:41:48;;;;;;;10.95;6.30;;;19.80;99.90;;;;;;5077371;28;20146;-75
2023/01/05 09:44:27;;;;;;;12.50;7.95;;;19.90;99.90;;;;;;5068971;28;20040;-74
2023/01/05 09:47:01;;;;;;;14.10;8.25;;;20.00;99.90;;;;;;5080165;28;20511;-74
2023/01/05 09:49:32;;;;;;;13.73;8.50;;;20.10;99.90;;;;;;5070468;28;20131;-74
2023/01/05 09:52:08;;;;;;;15.15;7.53;;;20.30;99.90;;;;;;5076592;28;20491;-73
2023/01/05 09:54:37;;;;;;;20.65;7.57;;;20.40;99.90;;;;;;5101005;28;20075;-77
2023/01/05 09:57:13;;;;;;;12.35;6.32;;;20.40;99.90;;;;;;5091900;28;20067;-75
2023/01/05 09:59:45;;;;;;;12.07;8.77;;;20.60;99.90;;;;;;5103918;28;20086;-75
2023/01/05 10:02:25;;;;;;;11.68;7.55;;;20.60;99.90;;;;;;5068393;28;20040;-76
2023/01/05 10:04:54;;;;;;;16.40;7.22;;;20.70;99.90;;;;;;5092815;28;20044;-75
2023/01/05 10:07:51;;;;;;;14.38;7.75;;;20.80;99.90;;;;;;5082078;28;20121;-74
2023/01/05 10:10:43;;;;;;;17.42;8.68;;;20.80;99.90;;;;;;5083086;28;20172;-74
2023/01/05 10:13:25;;;;;;;13.38;6.88;;;20.90;99.90;;;;;;5080407;28;20036;-73
2023/01/05 10:15:54;;;;;;;10.40;5.70;;;20.90;99.90;;;;;;5069710;28;20045;-73
2023/01/05 10:18:25;;;;;;;8.77;6.70;;;20.90;99.90;;;;;;5067687;28;20037;-73
2023/01/05 10:21:19;;;;;;;18.52;7.03;;;20.90;99.90;;;;;;5073083;28;20135;-74
2023/01/05 10:24:20;;;;;;;11.40;6.78;;;20.90;99.90;;;;;;5090259;28;20040;-73
2023/01/05 10:27:06;;;;;;;12.85;6.28;;;20.90;99.90;;;;;;5089055;28;20047;-73
2023/01/05 10:30:12;;;;;;;15.27;7.03;;;20.80;99.90;;;;;;5089392;28;20044;-73
2023/01/05 10:32:58;;;;;;;16.20;8.40;;;20.70;99.90;;;;;;5089264;28;20561;-73
2023/01/05 10:36:21;;;;;;;16.23;8.02;;;20.70;99.90;;;;;;5090769;28;20119;-73
2023/01/05 10:39:10;;;;;;;13.85;6.75;;;20.70;99.90;;;;;;5070153;28;20075;-73
2023/01/05 10:41:46;;;;;;;12.15;7.05;;;20.70;99.90;;;;;;5069748;28;20490;-73
2023/01/05 10:44:29;;;;;;;10.13;6.38;;;20.60;99.90;;;;;;5070740;28;20063;-75
2023/01/05 10:46:58;;;;;;;11.55;5.97;;;20.70;99.90;;;;;;5074571;28;20040;-74
2023/01/05 10:49:31;;;;;;;12.10;7.03;;;20.70;99.90;;;;;;5072501;28;20036;-74
2023/01/05 10:52:00;;;;;;;13.85;6.03;;;20.60;99.90;;;;;;5087508;28;20650;-75
2023/01/05 10:54:56;;;;;;;8.80;4.97;;;20.60;99.90;;;;;;5086769;28;20032;-74
2023/01/05 10:57:35;;;;;;;10.18;6.70;;;20.70;99.90;;;;;;5065843;28;20072;-74
2023/01/05 11:00:06;;;;;;;9.40;5.10;;;20.80;99.90;;;;;;5069541;28;20113;-74
2023/01/05 11:02:37;;;;;;;10.73;6.53;;;20.80;99.90;;;;;;5037971;28;20524;-74
2023/01/05 11:05:10;;;;;;;9.57;6.05;;;20.60;99.90;;;;;;5053649;28;20060;-75
2023/01/05 11:07:57;;;;;;;13.02;5.57;;;20.40;99.90;;;;;;5073989;28;20123;-74
2023/01/05 11:10:35;;;;;;;13.27;6.40;;;20.10;99.90;;;;;;5067060;28;20501;-75
2023/01/05 11:13:15;;;;;;;12.38;5.28;;;20.00;99.90;;;;;;5071793;28;20058;-73
2023/01/05 11:15:50;;;;;;;11.02;5.72;;;20.00;99.90;;;;;;5077607;28;20664;-74
2023/01/05 11:18:44;;;;;;;9.25;4.97;;;19.90;99.90;;;;;;5086915;28;20044;-74
2023/01/05 11:21:15;;;;;;;8.77;4.95;;;19.80;99.90;;;;;;5070139;28;20052;-74
2023/01/05 11:23:54;;;;;;;9.90;5.85;;;19.50;99.90;;;;;;5051204;28;20044;-75
2023/01/05 11:26:31;;;;;;;12.88;6.85;;;19.30;99.90;;;;;;5079268;28;20903;-75
2023/01/05 11:29:08;;;;;;;14.15;6.03;;;19.10;99.90;;;;;;5086723;28;20109;-73
2023/01/05 11:31:41;;;;;;;9.02;5.90;;;19.10;99.90;;;;;;5088035;28;20051;-73
2023/01/05 11:34:22;;;;;;;7.55;5.45;;;19.20;99.90;;;;;;5087153;28;20036;-74
2023/01/05 11:37:10;;;;;;;11.75;5.32;;;19.30;99.90;;;;;;5087572;28;20051;-73
2023/01/05 11:39:49;;;;;;;10.50;5.68;;;19.50;99.90;;;;;;5078219;28;20112;-73
2023/01/05 11:42:31;;;;;;;18.85;5.25;;;19.60;99.90;;;;;;5087237;28;20416;-72
2023/01/05 11:45:23;;;;;;;10.52;5.00;;;19.80;99.90;;;;;;5087393;28;20048;-73
2023/01/05 11:47:59;;;;;;;8.88;4.85;;;19.70;99.90;;;;;;5088641;28;20052;-74
2023/01/05 11:50:30;;;;;;;10.70;5.93;;;19.50;99.90;;;;;;5088799;28;20119;-74
2023/01/05 11:53:00;;;;;;;11.00;5.78;;;19.40;99.90;;;;;;5087287;28;20039;-74
2023/01/05 11:55:38;;;;;;;13.38;6.45;;;19.20;99.90;;;;;;5088961;28;20044;-74
2023/01/05 11:58:21;;;;;;;9.85;6.22;;;18.90;99.90;;;;;;5086822;28;20135;-75
2023/01/05 12:01:01;;;;;;;18.77;7.68;;;18.70;99.90;;;;;;5087506;28;20375;-74
2023/01/05 12:04:00;;;;;;;12.50;6.25;;;18.50;99.90;;;;;;5087210;28;20052;-74
2023/01/05 12:06:52;;;;;;;9.40;5.75;;;18.50;99.90;;;;;;5088295;28;20645;-73
2023/01/05 12:09:43;;;;;;;12.50;7.45;;;18.70;99.90;;;;;;5084633;28;20097;-73
2023/01/05 12:12:36;;;;;;;11.35;5.30;;;18.80;99.90;;;;;;5071016;28;20800;-73
2023/01/05 12:15:10;;;;;;;70.63;13.07;;;18.70;99.90;;;;;;5066903;28;20148;-73
2023/01/05 12:17:57;;;;;;;16.23;6.40;;;18.50;99.90;;;;;;5077476;28;20502;-73
2023/01/05 12:20:39;;;;;;;13.93;6.90;;;18.30;99.90;;;;;;5088362;28;20043;-74
2023/01/05 12:23:22;;;;;;;13.10;6.07;;;18.20;99.90;;;;;;5086933;28;20067;-74
2023/01/05 12:26:03;;;;;;;10.27;6.43;;;18.00;99.90;;;;;;5070193;28;20055;-72
2023/01/05 12:28:52;;;;;;;10.93;6.47;;;17.90;99.90;;;;;;5087329;28;20044;-74
2023/01/05 12:32:17;;;;;;;11.35;7.38;;;17.80;99.90;;;;;;5078490;28;20048;-74
2023/01/05 12:35:23;;;;;;;12.00;6.15;;;17.70;99.90;;;;;;5071218;28;20071;-74
2023/01/05 12:38:21;;;;;;;12.27;7.45;;;17.70;99.90;;;;;;5060231;28;20045;-75
2023/01/05 12:41:01;;;;;;;15.35;7.10;;;17.80;99.90;;;;;;5068423;28;20083;-74
2023/01/05 12:44:05;;;;;;;12.55;6.32;;;18.00;99.90;;;;;;5050155;28;20045;-74
2023/01/05 12:46:53;;;;;;;12.43;6.38;;;18.10;99.90;;;;;;5082856;28;20080;-76
2023/01/05 12:49:26;;;;;;;10.27;6.57;;;18.30;99.90;;;;;;5074678;28;20495;-74
2023/01/05 12:51:59;;;;;;;8.25;5.63;;;18.40;99.90;;;;;;5086837;28;20059;-76
2023/01/05 12:54:44;;;;;;;11.40;6.22;;;18.50;99.90;;;;;;5069604;28;20520;-75
2023/01/05 12:57:16;;;;;;;10.45;5.65;;;18.60;99.90;;;;;;5075306;28;20068;-75
2023/01/05 12:59:54;;;;;;;11.15;6.85;;;18.60;99.90;;;;;;5087001;28;20048;-75
2023/01/05 13:02:33;;;;;;;9.80;5.45;;;18.50;99.90;;;;;;5069762;28;20070;-75
2023/01/05 13:05:26;;;;;;;14.88;7.45;;;18.40;99.90;;;;;;5087336;28;20044;-74
2023/01/05 13:08:18;;;;;;;10.02;6.53;;;18.20;99.90;;;;;;5081614;28;20052;-75
2023/01/05 13:10:57;;;;;;;9.90;6.45;;;18.20;99.90;;;;;;5078631;28;20178;-75
2023/01/05 13:13:38;;;;;;;8.73;4.85;;;18.20;99.90;;;;;;5066586;28;20087;-74
2023/01/05 13:16:22;;;;;;;9.23;5.47;;;18.30;99.90;;;;;;5066839;28;20045;-74
2023/01/05 13:19:03;;;;;;;10.05;6.20;;;18.30;99.90;;;;;;5067195;28;20367;-74
2023/01/05 13:21:33;;;;;;;12.75;6.55;;;18.40;99.90;;;;;;5067006;28;20406;-74
2023/01/05 13:24:30;;;;;;;11.23;6.25;;;18.50;99.90;;;;;;5068060;28;20048;-74
2023/01/05 13:26:59;;;;;;;14.38;6.20;;;18.40;99.90;;;;;;5084699;28;20676;-75
2023/01/05 13:29:31;;;;;;;10.63;6.43;;;18.40;99.90;;;;;;5054218;28;20594;-74
2023/01/05 13:32:20;;;;;;;11.18;5.72;;;18.40;99.90;;;;;;5087262;28;20101;-75
2023/01/05 13:35:11;;;;;;;11.55;7.22;;;18.30;99.90;;;;;;5089451;28;20549;-74
2023/01/05 13:37:39;;;;;;;14.80;8.68;;;18.20;99.90;;;;;;5081676;28;20055;-76
2023/01/05 13:40:27;;;;;;;10.13;7.45;;;18.00;99.90;;;;;;5091332;28;20054;-76